Time;durP1;ratioP1;P1;durP2;ratioP2;P2;SDS_P1;SDS_P2;PMS_P1;PMS_P2;Temp;Humidity;BMP_temperature;BMP_pressure;BME280_temperature;BME280_humidity;BME280_pressure;Samples;Min_cycle;Max_cycle;Signal;HPM_P1;HPM_P2
2022/10/03 00:00:20;;;;;;;22.27;6.00;;;9.50;99.90;;;;;;5036879;28;20198;-61
2022/10/03 00:03:06;;;;;;;17.83;5.97;;;9.50;1.00;;;;;;5051995;28;20286;-61
2022/10/03 00:05:56;;;;;;;21.33;5.67;;;9.50;1.00;;;;;;5036568;28;20199;-61
2022/10/03 00:08:31;;;;;;;18.60;5.67;;;9.50;1.00;;;;;;5018645;28;20291;-61
2022/10/03 00:11:20;;;;;;;26.40;6.03;;;9.40;1.00;;;;;;5037746;28;20187;-61
2022/10/03 00:14:28;;;;;;;16.53;5.73;;;9.40;1.00;;;;;;5037248;28;20216;-61
2022/10/03 00:17:04;;;;;;;17.03;6.73;;;9.40;1.00;;;;;;5037362;28;20662;-61
2022/10/03 00:19:42;;;;;;;16.80;5.93;;;9.40;1.00;;;;;;5026910;28;20306;-61
2022/10/03 00:22:17;;;;;;;16.37;6.77;;;9.30;1.00;;;;;;5035896;28;20191;-61
2022/10/03 00:24:44;;;;;;;17.87;6.07;;;9.30;1.00;;;;;;5036493;28;20764;-61
2022/10/03 00:27:36;;;;;;;17.67;6.17;;;9.30;1.00;;;;;;5030707;28;20231;-61
2022/10/03 00:30:20;;;;;;;17.10;6.17;;;9.30;1.00;;;;;;5035167;28;20234;-61
2022/10/03 00:33:05;;;;;;;21.37;7.17;;;9.30;1.00;;;;;;5037650;28;20238;-61
2022/10/03 00:35:56;;;;;;;23.27;6.87;;;9.20;33.70;;;;;;5037582;28;20681;-62
2022/10/03 00:38:39;;;;;;;23.27;6.67;;;9.20;81.20;;;;;;5019505;28;20203;-62
2022/10/03 00:41:27;;;;;;;16.00;5.33;;;9.20;99.90;;;;;;5036704;28;20772;-61
2022/10/03 00:44:24;;;;;;;17.77;6.53;;;9.20;99.90;;;;;;5037030;28;20196;-62
2022/10/03 00:47:15;;;;;;;18.30;5.80;;;9.10;99.90;;;;;;5018673;28;20559;-61
2022/10/03 00:50:09;;;;;;;28.87;8.40;;;9.10;99.90;;;;;;5006294;28;20216;-61
2022/10/03 00:52:51;;;;;;;16.03;6.47;;;9.10;1.00;;;;;;5019057;28;20286;-61
2022/10/03 00:55:43;;;;;;;24.53;7.33;;;9.10;1.00;;;;;;5029533;28;20343;-61
2022/10/03 00:58:25;;;;;;;18.50;6.17;;;9.10;1.00;;;;;;5007853;28;20203;-62
2022/10/03 01:01:02;;;;;;;21.00;6.23;;;9.10;1.00;;;;;;5037256;28;20710;-62
2022/10/03 01:03:49;;;;;;;22.53;6.47;;;9.10;1.00;;;;;;5036383;28;20219;-68
2022/10/03 01:06:37;;;;;;;17.53;7.00;;;9.00;1.00;;;;;;5017921;28;20277;-61
2022/10/03 01:09:16;;;;;;;22.80;6.77;;;9.10;63.70;;;;;;5022190;28;20230;-61
2022/10/03 01:12:00;;;;;;;18.50;7.93;;;9.10;72.00;;;;;;5038672;28;20270;-61
2022/10/03 01:14:36;;;;;;;20.00;9.13;;;9.10;99.90;;;;;;5011825;28;20199;-61
2022/10/03 01:17:22;;;;;;;26.53;11.07;;;9.00;99.90;;;;;;5026974;28;20191;-61
2022/10/03 01:20:21;;;;;;;22.27;9.43;;;9.00;99.90;;;;;;5039841;28;20200;-61
2022/10/03 01:22:56;;;;;;;23.93;8.30;;;9.00;99.90;;;;;;5027106;28;20244;-61
2022/10/03 01:25:23;;;;;;;24.27;9.27;;;9.00;99.90;;;;;;5037819;28;20527;-61
2022/10/03 01:30:57;;;;;;;22.43;6.90;;;9.00;1.00;;;;;;5037510;28;20196;-62
2022/10/03 01:33:32;;;;;;;24.93;8.77;;;9.00;1.00;;;;;;5019251;28;20200;-62
2022/10/03 01:36:02;;;;;;;29.10;8.63;;;9.00;1.00;;;;;;5020310;28;20286;-62
2022/10/03 01:38:38;;;;;;;26.20;8.43;;;8.90;1.00;;;;;;5022651;28;20196;-62
2022/10/03 01:41:10;;;;;;;23.40;8.80;;;8.90;1.00;;;;;;5036258;28;20295;-62
2022/10/03 01:43:50;;;;;;;17.70;8.10;;;8.90;99.90;;;;;;5020950;28;20200;-62
2022/10/03 01:46:19;;;;;;;18.83;6.43;;;8.90;99.90;;;;;;5052631;28;20203;-62
2022/10/03 01:49:01;;;;;;;22.70;7.70;;;8.80;99.90;;;;;;5035133;28;20212;-62
2022/10/03 01:51:49;;;;;;;20.93;7.87;;;8.80;99.90;;;;;;5039083;28;20216;-62
2022/10/03 01:54:40;;;;;;;27.83;9.53;;;8.80;99.90;;;;;;5018038;28;20184;-62
2022/10/03 01:57:26;;;;;;;35.30;15.37;;;8.80;1.00;;;;;;5020005;28;20204;-62
2022/10/03 02:00:17;;;;;;;29.43;15.53;;;8.80;1.00;;;;;;5033350;28;20200;-62
2022/10/03 02:02:52;;;;;;;22.93;8.80;;;8.80;1.00;;;;;;5034802;28;20204;-62
2022/10/03 02:05:37;;;;;;;26.03;10.10;;;8.90;1.00;;;;;;5022561;28;20465;-62
2022/10/03 02:08:22;;;;;;;28.67;14.70;;;9.00;99.90;;;;;;5038012;28;20298;-62
2022/10/03 02:11:08;;;;;;;25.73;12.40;;;9.00;99.90;;;;;;5037127;28;20290;-62
2022/10/03 02:13:42;;;;;;;27.90;9.33;;;9.00;99.90;;;;;;5038040;28;20568;-62
2022/10/03 02:16:21;;;;;;;21.07;10.37;;;9.00;1.00;;;;;;5039126;28;20187;-62
2022/10/03 02:19:02;;;;;;;24.93;11.43;;;9.00;99.90;;;;;;5035732;28;20204;-62
2022/10/03 02:21:31;;;;;;;23.57;11.60;;;9.00;99.90;;;;;;5038273;28;20279;-62
2022/10/03 02:24:13;;;;;;;22.00;8.20;;;9.00;99.90;;;;;;5036381;28;20196;-62
2022/10/03 02:26:49;;;;;;;26.87;12.77;;;9.00;99.90;;;;;;5000457;28;20245;-62
2022/10/03 02:29:34;;;;;;;36.47;10.57;;;9.00;99.90;;;;;;5007788;28;20307;-61
2022/10/03 02:32:39;;;;;;;26.47;10.37;;;9.00;99.90;;;;;;4999077;28;20813;-61
2022/10/03 02:35:07;;;;;;;28.50;12.50;;;9.00;99.90;;;;;;5011784;28;20188;-62
2022/10/03 02:37:58;;;;;;;24.97;13.33;;;9.00;99.90;;;;;;4999208;28;20268;-61
2022/10/03 02:40:55;;;;;;;33.33;15.63;;;9.00;99.90;;;;;;5006648;28;20331;-61
2022/10/03 02:43:49;;;;;;;25.87;8.63;;;9.00;1.00;;;;;;5007610;28;20189;-61
2022/10/03 02:46:34;;;;;;;22.13;8.77;;;8.90;99.90;;;;;;5005496;28;20198;-62
2022/10/03 02:49:38;;;;;;;28.17;8.77;;;8.80;99.90;;;;;;5007004;28;20306;-61
2022/10/03 02:52:29;;;;;;;30.37;9.83;;;8.70;99.90;;;;;;5016390;28;20207;-61
2022/10/03 02:55:53;;;;;;;23.33;8.93;;;8.70;99.90;;;;;;5014928;28;20246;-61
2022/10/03 02:59:01;;;;;;;24.43;9.67;;;8.70;1.00;;;;;;4914752;29;20271;-62
2022/10/03 03:01:34;;;;;;;28.83;11.03;;;8.60;1.00;;;;;;4911891;29;20210;-61
2022/10/03 03:04:00;;;;;;;27.37;10.23;;;8.60;1.00;;;;;;4996090;28;20201;-63
2022/10/03 03:07:02;;;;;;;23.93;9.43;;;8.60;1.00;;;;;;5008231;28;20201;-62
2022/10/03 03:09:59;;;;;;;26.83;9.87;;;8.60;99.90;;;;;;5011930;28;20247;-63
2022/10/03 03:12:51;;;;;;;26.53;11.00;;;8.60;1.00;;;;;;5025965;28;20220;-62
2022/10/03 03:15:55;;;;;;;28.53;9.37;;;8.60;1.00;;;;;;5008795;28;20224;-62
2022/10/03 03:18:32;;;;;;;23.77;9.17;;;8.60;1.00;;;;;;5009930;28;20192;-62
2022/10/03 03:21:02;;;;;;;36.60;12.50;;;8.50;1.00;;;;;;5010471;28;20295;-62
2022/10/03 03:23:40;;;;;;;27.80;14.07;;;8.50;1.00;;;;;;5012080;28;20192;-62
2022/10/03 03:26:21;;;;;;;36.17;14.70;;;8.50;1.00;;;;;;5013670;28;20227;-61
2022/10/03 03:29:23;;;;;;;29.40;14.30;;;8.50;97.70;;;;;;5032920;28;20246;-61
2022/10/03 03:32:21;;;;;;;24.53;13.47;;;8.50;99.90;;;;;;5005933;28;20318;-61
2022/10/03 03:35:00;;;;;;;33.40;19.07;;;8.50;1.00;;;;;;5034142;28;20194;-62
2022/10/03 03:37:52;;;;;;;25.87;13.67;;;8.50;1.00;;;;;;5032090;28;20701;-60
2022/10/03 03:40:39;;;;;;;31.03;16.60;;;8.50;1.00;;;;;;5035611;28;20200;-61
2022/10/03 03:43:18;;;;;;;31.37;15.83;;;8.50;1.00;;;;;;5024278;28;20212;-61
2022/10/03 03:45:53;;;;;;;25.70;14.40;;;8.60;99.90;;;;;;5036534;28;20232;-62
2022/10/03 03:48:49;;;;;;;32.17;11.93;;;8.60;99.90;;;;;;5035291;28;20200;-63
2022/10/03 03:51:33;;;;;;;29.87;12.53;;;8.60;99.90;;;;;;5018961;28;20274;-62
2022/10/03 03:54:18;;;;;;;27.13;11.23;;;8.40;99.90;;;;;;5035391;28;20196;-62
2022/10/03 03:56:48;;;;;;;26.73;10.53;;;8.40;99.90;;;;;;5035852;28;20219;-62
2022/10/03 03:59:52;;;;;;;24.90;11.33;;;8.40;99.90;;;;;;5036794;28;20227;-62
2022/10/03 04:02:51;;;;;;;27.70;11.93;;;8.50;1.00;;;;;;5027124;28;20187;-62
2022/10/03 04:05:49;;;;;;;29.50;11.10;;;8.40;1.00;;;;;;5017571;28;20195;-62
2022/10/03 04:08:44;;;;;;;25.60;12.03;;;8.40;1.00;;;;;;5033098;28;20200;-62
2022/10/03 04:11:21;;;;;;;29.77;13.67;;;8.40;43.70;;;;;;5024405;28;20188;-62
2022/10/03 04:14:10;;;;;;;27.50;12.53;;;8.40;99.90;;;;;;5032756;28;20295;-62
2022/10/03 04:20:31;;;;;;;26.57;13.00;;;8.40;99.90;;;;;;5037285;28;20203;-62
2022/10/03 04:23:09;;;;;;;30.43;11.67;;;8.40;99.90;;;;;;5035657;28;20217;-60
2022/10/03 04:25:53;;;;;;;27.03;11.73;;;8.40;99.90;;;;;;5031451;28;20200;-61
2022/10/03 04:28:48;;;;;;;23.10;12.93;;;8.40;99.90;;;;;;5043931;28;20241;-60
2022/10/03 04:31:33;;;;;;;26.77;13.83;;;8.40;99.90;;;;;;5037616;28;20199;-61
2022/10/03 04:34:18;;;;;;;36.87;12.83;;;8.40;1.00;;;;;;5027665;28;20190;-62
2022/10/03 04:37:30;;;;;;;31.50;17.73;;;8.40;1.00;;;;;;5021778;28;20242;-60
2022/10/03 04:44:27;;;;;;;30.63;14.23;;;8.60;1.00;;;;;;4970959;28;20198;-60
2022/10/03 04:46:57;;;;;;;23.93;13.27;;;8.40;1.00;;;;;;4963793;28;20735;-61
2022/10/03 04:49:36;;;;;;;37.33;13.13;;;8.30;1.00;;;;;;4976085;28;20712;-61
2022/10/03 04:52:18;;;;;;;31.23;12.80;;;8.30;1.00;;;;;;4965522;28;20233;-60
2022/10/03 04:55:05;;;;;;;44.03;19.17;;;8.30;1.00;;;;;;4978033;28;20289;-62
2022/10/03 04:57:42;;;;;;;39.37;20.10;;;8.30;1.00;;;;;;4976486;28;20207;-60
2022/10/03 05:00:28;;;;;;;35.27;18.30;;;8.40;1.00;;;;;;5038187;28;20680;-60
2022/10/03 05:03:21;;;;;;;36.70;16.53;;;8.40;1.00;;;;;;5020706;28;20218;-59
2022/10/03 05:06:10;;;;;;;35.23;15.60;;;8.30;13.80;;;;;;5035641;28;20200;-60
2022/10/03 05:09:09;;;;;;;34.03;15.70;;;8.30;50.90;;;;;;5021076;28;20911;-61
2022/10/03 05:12:14;;;;;;;43.17;16.37;;;8.30;66.50;;;;;;5029761;28;20208;-59
2022/10/03 05:14:48;;;;;;;35.53;15.80;;;8.30;97.60;;;;;;5020604;28;20249;-60
2022/10/03 05:17:29;;;;;;;28.37;14.47;;;8.40;99.90;;;;;;5036684;28;21458;-59
2022/10/03 05:20:02;;;;;;;36.17;16.20;;;8.30;99.90;;;;;;5035093;28;20227;-59
2022/10/03 05:22:39;;;;;;;35.23;16.90;;;8.30;99.90;;;;;;5002718;28;20289;-59
2022/10/03 05:25:14;;;;;;;45.43;18.97;;;8.30;99.90;;;;;;5033448;28;20201;-59
2022/10/03 05:28:11;;;;;;;39.30;17.83;;;8.30;99.90;;;;;;5017899;28;20239;-60
2022/10/03 05:31:06;;;;;;;33.93;15.53;;;8.30;99.90;;;;;;4968998;28;20246;-60
2022/10/03 05:33:54;;;;;;;39.23;16.30;;;8.30;99.90;;;;;;5013213;28;20200;-59
2022/10/03 05:36:22;;;;;;;35.13;15.57;;;8.20;99.90;;;;;;5016449;28;20188;-59
2022/10/03 05:39:25;;;;;;;40.60;16.07;;;8.30;99.90;;;;;;5016502;28;20197;-60
2022/10/03 05:42:24;;;;;;;42.33;15.83;;;8.30;99.90;;;;;;5005265;28;20192;-61
2022/10/03 05:45:29;;;;;;;39.03;16.73;;;8.30;99.90;;;;;;5018103;28;20192;-60
2022/10/03 05:48:33;;;;;;;38.00;15.40;;;8.30;99.90;;;;;;5013796;28;20224;-60
2022/10/03 05:51:10;;;;;;;40.17;15.80;;;8.40;99.90;;;;;;5022238;28;20206;-60
2022/10/03 05:54:15;;;;;;;36.27;16.60;;;8.50;99.90;;;;;;5030311;28;20614;-58
2022/10/03 05:57:24;;;;;;;38.20;16.70;;;8.60;99.90;;;;;;5018643;28;20711;-59
2022/10/03 06:00:05;;;;;;;43.63;21.30;;;9.00;99.90;;;;;;5017672;28;20203;-59
2022/10/03 06:03:10;;;;;;;48.37;21.87;;;9.50;99.90;;;;;;5019148;28;20557;-59
2022/10/03 06:06:11;;;;;;;50.17;22.90;;;10.00;99.90;;;;;;5020382;28;20192;-59
2022/10/03 06:08:51;;;;;;;52.43;22.80;;;10.70;99.90;;;;;;5026388;28;20222;-60
2022/10/03 06:11:56;;;;;;;52.60;24.07;;;11.30;35.30;;;;;;4996752;28;20251;-60
2022/10/03 06:14:38;;;;;;;40.60;18.43;;;11.80;99.90;;;;;;5034094;28;20200;-58
2022/10/03 06:17:24;;;;;;;26.37;12.90;;;12.70;1.00;;;;;;5014009;28;20193;-62
2022/10/03 06:20:36;;;;;;;21.50;9.63;;;13.80;99.90;;;;;;5018944;28;20202;-62
2022/10/03 06:23:18;;;;;;;20.87;9.00;;;14.70;99.90;;;;;;5015179;28;20597;-61
2022/10/03 06:25:53;;;;;;;18.47;7.70;;;15.30;99.90;;;;;;5016110;28;20200;-60
2022/10/03 06:29:00;;;;;;;18.27;8.00;;;16.20;99.90;;;;;;5020244;28;20523;-62
2022/10/03 06:31:42;;;;;;;20.30;7.75;;;17.10;1.00;;;;;;5016388;28;21444;-62
2022/10/03 06:34:30;;;;;;;16.15;7.45;;;17.40;1.00;;;;;;5020877;28;20212;-62
2022/10/03 06:37:26;;;;;;;14.18;7.40;;;17.90;1.00;;;;;;5017574;28;20220;-59
2022/10/03 06:40:23;;;;;;;12.57;6.32;;;17.40;1.00;;;;;;4964338;28;20387;-62
2022/10/03 06:42:50;;;;;;;16.60;6.85;;;18.70;1.00;;;;;;5014885;28;20540;-59
2022/10/03 06:46:14;;;;;;;14.75;7.15;;;19.00;1.00;;;;;;5016406;28;20199;-62
2022/10/03 06:48:54;;;;;;;13.80;6.75;;;19.90;1.00;;;;;;4920035;28;20223;-61
2022/10/03 06:51:46;;;;;;;18.33;7.00;;;20.60;1.00;;;;;;4921109;28;20196;-61
2022/10/03 06:54:39;;;;;;;13.30;5.80;;;21.10;1.00;;;;;;5014179;28;20200;-61
2022/10/03 06:57:24;;;;;;;16.92;6.65;;;21.90;1.00;;;;;;4988754;28;20740;-61
2022/10/03 06:59:50;;;;;;;21.83;6.32;;;22.00;1.00;;;;;;5018935;28;20200;-59
2022/10/03 07:02:49;;;;;;;17.38;7.03;;;22.10;1.00;;;;;;5015198;28;20672;-61
2022/10/03 07:05:18;;;;;;;15.32;6.32;;;23.10;1.00;;;;;;4982402;28;20200;-61
2022/10/03 07:08:04;;;;;;;11.88;6.00;;;22.70;1.00;;;;;;5016164;28;20200;-62
2022/10/03 07:10:49;;;;;;;16.95;8.10;;;23.60;1.00;;;;;;5015510;28;20208;-60
2022/10/03 07:13:42;;;;;;;11.02;6.38;;;23.10;1.00;;;;;;5018475;28;20299;-60
2022/10/03 07:16:30;;;;;;;19.85;7.10;;;23.50;1.00;;;;;;5017295;28;20184;-59
2022/10/03 07:19:33;;;;;;;18.15;6.88;;;23.60;1.00;;;;;;5014812;28;20196;-60
2022/10/03 07:22:20;;;;;;;15.35;7.07;;;25.00;1.00;;;;;;5011314;28;20258;-62
2022/10/03 07:24:53;;;;;;;17.50;6.30;;;24.50;1.00;;;;;;5015058;28;20219;-62
2022/10/03 07:27:19;;;;;;;15.13;6.97;;;25.20;1.00;;;;;;5017183;28;20216;-63
2022/10/03 07:30:22;;;;;;;13.52;6.93;;;26.10;1.00;;;;;;5012093;28;20575;-61
2022/10/03 07:32:56;;;;;;;11.27;6.45;;;26.60;1.00;;;;;;5016795;28;20227;-58
2022/10/03 07:39:16;;;;;;;15.98;8.27;;;27.10;1.00;;;;;;5016368;28;20235;-65
2022/10/03 07:42:18;;;;;;;16.60;7.85;;;25.50;1.00;;;;;;4982538;28;20703;-61
2022/10/03 07:45:04;;;;;;;19.13;7.78;;;23.50;1.00;;;;;;5015202;28;20196;-62
2022/10/03 07:47:46;;;;;;;15.48;8.48;;;21.50;1.00;;;;;;5014987;28;20307;-63
2022/10/03 07:50:44;;;;;;;21.73;7.13;;;20.10;1.00;;;;;;5015384;28;20242;-60
2022/10/03 07:53:23;;;;;;;14.23;8.68;;;18.10;1.00;;;;;;5030072;28;20291;-61
2022/10/03 07:56:01;;;;;;;16.83;7.75;;;17.90;1.00;;;;;;5030662;28;20203;-60
2022/10/03 07:58:57;;;;;;;16.92;8.77;;;17.60;1.00;;;;;;5025476;28;20196;-61
2022/10/03 08:01:41;;;;;;;19.02;9.10;;;17.40;1.00;;;;;;5018480;28;20200;-59
2022/10/03 08:04:42;;;;;;;16.85;8.75;;;17.20;1.00;;;;;;5024563;28;20274;-58
2022/10/03 08:07:18;;;;;;;18.83;9.30;;;17.10;1.00;;;;;;5019859;28;20275;-60
2022/10/03 08:09:53;;;;;;;20.40;8.73;;;16.60;1.00;;;;;;5017335;28;20207;-62
2022/10/03 08:12:34;;;;;;;19.67;10.93;;;16.70;1.00;;;;;;5017416;28;20248;-61
2022/10/03 08:15:22;;;;;;;23.70;11.27;;;16.90;1.00;;;;;;5018073;28;20194;-59
2022/10/03 08:18:31;;;;;;;20.50;10.75;;;17.20;1.00;;;;;;5016265;28;20292;-60
2022/10/03 08:21:02;;;;;;;19.50;9.90;;;18.00;1.00;;;;;;4997586;28;20266;-60
2022/10/03 08:24:15;;;;;;;18.48;10.02;;;18.80;1.00;;;;;;5027122;28;20232;-60
2022/10/03 08:27:07;;;;;;;15.75;9.40;;;19.20;1.00;;;;;;5019334;28;20224;-58
2022/10/03 08:29:57;;;;;;;16.65;8.55;;;19.30;1.00;;;;;;5011737;28;20324;-59
2022/10/03 08:32:44;;;;;;;18.40;8.85;;;19.40;1.00;;;;;;5030235;28;20555;-59
2022/10/03 08:35:37;;;;;;;22.02;8.75;;;19.20;1.00;;;;;;5014186;28;20204;-59
2022/10/03 08:38:19;;;;;;;16.77;8.32;;;19.30;1.00;;;;;;5035782;28;21271;-58
2022/10/03 08:41:08;;;;;;;21.05;8.35;;;19.30;1.00;;;;;;5038199;28;20261;-60
2022/10/03 08:43:53;;;;;;;16.98;8.60;;;19.50;1.00;;;;;;5018448;28;20211;-61
2022/10/03 08:46:45;;;;;;;14.93;8.40;;;19.80;1.00;;;;;;5041633;28;20257;-62
2022/10/03 08:49:34;;;;;;;18.17;7.85;;;21.20;1.00;;;;;;5036001;28;20222;-61
2022/10/03 08:52:23;;;;;;;20.23;7.68;;;24.20;1.00;;;;;;5018617;28;20207;-61
2022/10/03 08:55:15;;;;;;;19.38;7.55;;;25.40;1.00;;;;;;5034516;28;20192;-60
2022/10/03 08:58:01;;;;;;;17.75;7.32;;;26.20;1.00;;;;;;5035045;28;20195;-61
2022/10/03 09:00:36;;;;;;;10.30;5.78;;;26.50;1.00;;;;;;5050012;28;20208;-59
2022/10/03 09:03:24;;;;;;;14.00;5.82;;;25.50;1.00;;;;;;5015535;28;20195;-59
2022/10/03 09:06:23;;;;;;;14.60;7.55;;;23.40;1.00;;;;;;5034042;28;20280;-61
2022/10/03 09:09:22;;;;;;;15.00;7.35;;;23.30;1.00;;;;;;5035915;28;20257;-61
2022/10/03 09:12:04;;;;;;;20.38;10.52;;;26.50;1.00;;;;;;4948906;28;20222;-61
2022/10/03 09:14:52;;;;;;;14.02;6.13;;;26.70;1.00;;;;;;5015504;28;20841;-62
2022/10/03 09:17:48;;;;;;;17.05;6.15;;;31.20;1.00;;;;;;5036510;28;20305;-60
2022/10/03 09:20:32;;;;;;;12.63;5.40;;;32.50;1.00;;;;;;5037308;28;20718;-63
2022/10/03 09:23:28;;;;;;;17.70;8.02;;;35.00;1.00;;;;;;5039921;28;20192;-61
2022/10/03 09:26:23;;;;;;;17.63;7.40;;;35.20;1.00;;;;;;4998904;28;20292;-62
2022/10/03 09:29:06;;;;;;;11.93;6.35;;;29.40;1.00;;;;;;5009664;28;20217;-61
2022/10/03 09:32:05;;;;;;;16.52;6.70;;;25.60;1.00;;;;;;5038773;28;20208;-62
2022/10/03 09:34:35;;;;;;;13.40;6.32;;;24.10;1.00;;;;;;5000389;28;20204;-63
2022/10/03 09:37:17;;;;;;;12.13;5.47;;;23.40;1.00;;;;;;5021347;28;20192;-62
2022/10/03 09:39:56;;;;;;;18.33;6.43;;;23.40;1.00;;;;;;5049270;28;20207;-62
2022/10/03 09:43:00;;;;;;;10.68;3.85;;;24.90;1.00;;;;;;5036887;28;20262;-62
2022/10/03 09:46:14;;;;;;;7.93;3.72;;;30.30;1.00;;;;;;5032132;28;20536;-61
2022/10/03 09:49:03;;;;;;;9.32;3.08;;;28.70;1.00;;;;;;4982770;28;20658;-61
2022/10/03 09:51:48;;;;;;;11.48;3.58;;;26.10;1.00;;;;;;5038597;28;20729;-63
2022/10/03 09:54:30;;;;;;;10.48;3.47;;;24.20;1.00;;;;;;5036126;28;20191;-72
2022/10/03 09:57:21;;;;;;;15.70;3.90;;;23.80;1.00;;;;;;5053922;28;20219;-62
2022/10/03 10:00:07;;;;;;;8.23;2.95;;;24.60;1.00;;;;;;5039580;28;20281;-61
2022/10/03 10:02:40;;;;;;;8.35;3.38;;;24.60;1.00;;;;;;5034862;28;20215;-61
2022/10/03 10:05:29;;;;;;;10.65;3.65;;;22.60;1.00;;;;;;5022523;28;20223;-63
2022/10/03 10:08:17;;;;;;;16.00;3.63;;;21.20;1.00;;;;;;5041135;28;20283;-61
2022/10/03 10:11:02;;;;;;;11.10;2.97;;;20.40;1.00;;;;;;5037558;28;20720;-62
2022/10/03 10:13:46;;;;;;;12.38;3.28;;;24.20;1.00;;;;;;5028704;28;20269;-62
2022/10/03 10:17:06;;;;;;;8.70;2.95;;;28.10;1.00;;;;;;5031215;28;20210;-62
2022/10/03 10:19:52;;;;;;;9.88;3.15;;;27.20;1.00;;;;;;5019694;28;20242;-61
2022/10/03 10:22:40;;;;;;;10.80;3.38;;;29.80;1.00;;;;;;5044671;28;20183;-61
2022/10/03 10:25:08;;;;;;;9.95;2.78;;;25.90;1.00;;;;;;5022537;28;20290;-60
2022/10/03 10:27:34;;;;;;;9.38;3.05;;;23.40;1.00;;;;;;5039592;28;20310;-61
2022/10/03 10:30:34;;;;;;;10.95;3.28;;;21.70;1.00;;;;;;5041045;28;20275;-62
2022/10/03 10:33:42;;;;;;;7.80;2.65;;;21.10;1.00;;;;;;5021831;28;20188;-63
2022/10/03 10:36:27;;;;;;;8.13;2.92;;;20.80;1.00;;;;;;5020200;28;20418;-63
2022/10/03 10:39:53;;;;;;;6.45;2.30;;;24.30;1.00;;;;;;5022748;28;20196;-59
2022/10/03 10:42:57;;;;;;;6.30;2.20;;;27.90;1.00;;;;;;5004931;28;20754;-61
2022/10/03 10:45:45;;;;;;;9.45;2.70;;;26.00;1.00;;;;;;5020440;28;20194;-59
2022/10/03 10:48:45;;;;;;;8.82;2.72;;;25.60;1.00;;;;;;5038518;28;20237;-62
2022/10/03 10:51:44;;;;;;;8.93;2.50;;;23.70;1.00;;;;;;5039035;28;20216;-58
2022/10/03 10:54:47;;;;;;;8.23;2.42;;;23.20;1.00;;;;;;5044057;28;20192;-62
2022/10/03 10:57:44;;;;;;;6.63;2.10;;;27.70;1.00;;;;;;5041127;28;20223;-61
2022/10/03 11:00:17;;;;;;;7.03;2.50;;;30.40;1.00;;;;;;5038502;28;20184;-61
2022/10/03 11:03:21;;;;;;;10.88;2.28;;;29.00;1.00;;;;;;5034674;28;20725;-59
2022/10/03 11:06:22;;;;;;;6.18;2.08;;;26.20;1.00;;;;;;5037915;28;20204;-61
2022/10/03 11:09:20;;;;;;;7.72;2.42;;;27.10;1.00;;;;;;5038322;28;20220;-59
2022/10/03 11:12:40;;;;;;;8.77;2.88;;;25.40;1.00;;;;;;5026808;28;20742;-59
2022/10/03 11:15:26;;;;;;;9.02;2.40;;;23.30;1.00;;;;;;5040290;28;20246;-64
2022/10/03 11:18:14;;;;;;;7.18;2.03;;;22.10;1.00;;;;;;5039813;28;20223;-62
2022/10/03 11:21:13;;;;;;;7.97;2.25;;;21.00;1.00;;;;;;5026786;28;20204;-63
2022/10/03 11:24:00;;;;;;;9.98;2.45;;;20.50;1.00;;;;;;4979044;28;20208;-61
2022/10/03 11:27:19;;;;;;;9.50;2.35;;;20.10;1.00;;;;;;4999320;28;20355;-61
2022/10/03 11:30:06;;;;;;;11.10;3.60;;;20.30;1.00;;;;;;5019791;28;20223;-61
2022/10/03 11:33:01;;;;;;;7.35;2.33;;;21.40;1.00;;;;;;5028651;28;20207;-61
2022/10/03 11:35:53;;;;;;;7.50;1.90;;;22.50;1.00;;;;;;5038103;28;20219;-61
2022/10/03 11:38:30;;;;;;;5.03;2.15;;;23.70;1.00;;;;;;5033930;28;20283;-61
2022/10/03 11:41:25;;;;;;;6.07;1.85;;;24.20;1.00;;;;;;5017319;28;20191;-61
2022/10/03 11:44:15;;;;;;;6.30;1.98;;;23.60;1.00;;;;;;5036379;28;20224;-60
2022/10/03 11:46:57;;;;;;;5.80;1.77;;;24.70;1.00;;;;;;5037137;28;20215;-61
2022/10/03 11:49:33;;;;;;;6.22;2.25;;;25.60;1.00;;;;;;5021289;28;20388;-61
2022/10/03 11:52:24;;;;;;;6.35;3.10;;;25.80;1.00;;;;;;5036576;28;20274;-60
2022/10/03 11:55:08;;;;;;;9.18;2.45;;;26.30;1.00;;;;;;5050582;28;20394;-61
2022/10/03 11:57:38;;;;;;;5.57;2.80;;;26.70;1.00;;;;;;5035477;28;20681;-62
2022/10/03 12:00:19;;;;;;;6.97;2.58;;;26.40;1.00;;;;;;5035216;28;20195;-66
2022/10/03 12:03:21;;;;;;;5.13;2.20;;;25.60;1.00;;;;;;5018605;28;20196;-60
2022/10/03 12:08:53;;;;;;;6.53;2.03;;;25.50;1.00;;;;;;5020921;28;20199;-62
2022/10/03 12:09:19;;;;;;;7.45;2.38;;;25.00;1.00;;;;;;5037593;28;20938;-62
2022/10/03 12:12:18;;;;;;;8.48;4.38;;;24.00;1.00;;;;;;5038208;28;20298;-62
2022/10/03 12:14:50;;;;;;;8.60;2.80;;;23.40;1.00;;;;;;5026806;28;20287;-60
2022/10/03 12:17:41;;;;;;;8.35;2.38;;;22.70;1.00;;;;;;5038771;28;20188;-62
2022/10/03 12:20:22;;;;;;;9.48;4.13;;;22.20;1.00;;;;;;5018430;28;21232;-61
2022/10/03 12:23:03;;;;;;;8.60;5.10;;;21.60;1.00;;;;;;5008204;28;20237;-62
2022/10/03 12:25:35;;;;;;;8.60;4.15;;;21.10;1.00;;;;;;5027098;28;20299;-61
2022/10/03 12:28:23;;;;;;;8.65;2.58;;;20.80;1.00;;;;;;5016249;28;20281;-63
2022/10/03 12:30:55;;;;;;;6.15;3.10;;;20.70;1.00;;;;;;5036426;28;20219;-62
2022/10/03 12:33:44;;;;;;;8.32;2.17;;;20.30;1.00;;;;;;5026927;28;20212;-61
2022/10/03 12:36:22;;;;;;;10.07;2.53;;;20.10;1.00;;;;;;5035047;28;20738;-62
2022/10/03 12:39:04;;;;;;;11.45;7.93;;;20.40;1.00;;;;;;5035721;28;20220;-61
2022/10/03 12:41:40;;;;;;;8.18;4.32;;;21.00;1.00;;;;;;5037857;28;20599;-64
2022/10/03 12:44:31;;;;;;;6.80;3.05;;;21.10;1.00;;;;;;5004356;28;20195;-63
2022/10/03 12:47:26;;;;;;;5.97;4.00;;;21.50;1.00;;;;;;5029359;28;20215;-63
2022/10/03 12:50:36;;;;;;;7.28;3.78;;;21.90;1.00;;;;;;5037646;28;20574;-63
2022/10/03 12:53:16;;;;;;;7.30;4.05;;;21.90;1.00;;;;;;5028100;28;20196;-62
2022/10/03 12:55:58;;;;;;;7.80;2.47;;;22.10;1.00;;;;;;5039222;28;20229;-62
2022/10/03 12:58:28;;;;;;;7.88;4.72;;;22.00;1.00;;;;;;5029390;28;20215;-62
2022/10/03 13:01:16;;;;;;;7.45;2.88;;;21.80;1.00;;;;;;5044069;28;20199;-62
2022/10/03 13:03:55;;;;;;;9.15;2.90;;;21.40;1.00;;;;;;5041152;28;20196;-62
2022/10/03 13:06:48;;;;;;;4.57;1.95;;;21.20;1.00;;;;;;5039954;28;20196;-63
2022/10/03 13:09:48;;;;;;;7.82;2.75;;;20.30;1.00;;;;;;5023129;28;20195;-62
2022/10/03 13:12:19;;;;;;;10.65;3.45;;;20.20;1.00;;;;;;5011478;28;20223;-63
2022/10/03 13:15:18;;;;;;;5.25;2.67;;;20.30;1.00;;;;;;5031795;28;20214;-62
2022/10/03 13:17:48;;;;;;;9.25;4.32;;;20.20;1.00;;;;;;5039960;28;20291;-62
2022/10/03 13:20:32;;;;;;;11.68;4.55;;;20.20;1.00;;;;;;5042628;28;20183;-61
2022/10/03 13:23:12;;;;;;;11.07;5.07;;;20.10;1.00;;;;;;5041005;28;20260;-61
2022/10/03 13:26:10;;;;;;;9.15;3.85;;;20.20;1.00;;;;;;5040274;28;20680;-62
2022/10/03 13:28:53;;;;;;;7.90;4.18;;;20.20;1.00;;;;;;5032651;28;20258;-61
2022/10/03 13:31:25;;;;;;;4.88;1.92;;;20.30;1.00;;;;;;5042478;28;20264;-62
2022/10/03 13:34:00;;;;;;;6.20;2.13;;;20.20;1.00;;;;;;5029329;28;20590;-61
2022/10/03 13:36:43;;;;;;;5.78;3.15;;;20.00;1.00;;;;;;5042801;28;20195;-62
2022/10/03 13:39:20;;;;;;;9.63;2.85;;;20.20;1.00;;;;;;5028774;28;20199;-62
2022/10/03 13:42:18;;;;;;;11.77;4.70;;;20.30;1.00;;;;;;5042766;28;20202;-62
2022/10/03 13:45:02;;;;;;;6.78;2.25;;;20.30;1.00;;;;;;5041083;28;20199;-62
2022/10/03 13:47:38;;;;;;;6.85;3.53;;;20.30;1.00;;;;;;5042193;28;20196;-62
2022/10/03 13:50:42;;;;;;;6.32;3.30;;;20.20;1.00;;;;;;5038466;28;20294;-62
2022/10/03 13:53:24;;;;;;;6.00;2.67;;;20.20;1.00;;;;;;5019204;28;20293;-62
2022/10/03 13:56:00;;;;;;;4.72;1.77;;;20.30;1.00;;;;;;5040602;28;20214;-63
2022/10/03 13:58:31;;;;;;;8.85;3.42;;;20.50;1.00;;;;;;5020801;28;20259;-63
2022/10/03 14:01:12;;;;;;;5.60;1.83;;;20.60;1.00;;;;;;5014632;28;20216;-62
2022/10/03 14:04:01;;;;;;;6.15;1.45;;;20.60;1.00;;;;;;5022230;28;20208;-61
2022/10/03 14:06:34;;;;;;;7.68;2.10;;;20.40;1.00;;;;;;5040552;28;20189;-62
2022/10/03 14:09:22;;;;;;;4.60;1.85;;;20.10;1.00;;;;;;5039303;28;20306;-62
2022/10/03 14:11:52;;;;;;;9.32;2.30;;;19.90;1.00;;;;;;5038474;28;20307;-62
2022/10/03 14:14:33;;;;;;;7.88;2.10;;;19.80;1.00;;;;;;5041132;28;20330;-62
2022/10/03 14:17:24;;;;;;;7.75;2.22;;;19.80;1.00;;;;;;5040736;28;20662;-62
2022/10/03 14:20:23;;;;;;;4.28;1.90;;;19.60;1.00;;;;;;5038073;28;20283;-62
2022/10/03 14:23:15;;;;;;;7.88;2.63;;;19.50;1.00;;;;;;5029572;28;20219;-62
2022/10/03 14:26:20;;;;;;;17.17;13.32;;;19.30;1.00;;;;;;5027049;28;20196;-61
2022/10/03 14:28:51;;;;;;;6.80;2.30;;;19.30;1.00;;;;;;5038902;28;20191;-62
2022/10/03 14:31:44;;;;;;;5.40;1.65;;;19.40;1.00;;;;;;5039523;28;20203;-62
2022/10/03 14:34:32;;;;;;;9.98;1.70;;;19.40;1.00;;;;;;5040237;28;20212;-62
2022/10/03 14:37:38;;;;;;;4.75;1.75;;;19.30;1.00;;;;;;5008273;28;20223;-61
2022/10/03 14:40:22;;;;;;;8.70;2.53;;;19.30;1.00;;;;;;5043631;28;20254;-62
2022/10/03 14:43:01;;;;;;;3.83;1.90;;;19.20;1.00;;;;;;5024096;28;20195;-63
2022/10/03 14:45:36;;;;;;;7.40;1.75;;;19.30;1.00;;;;;;5029656;28;20293;-62